sensor_id;sensor_type;location;lat;lon;timestamp;pressure;altitude;pressure_sealevel;temperature;humidity
28004;BME280;15330;51.234;6.754;2023-01-09T00:00:11;99021.53;;;8.10;100.00
28004;BME280;15330;51.234;6.754;2023-01-09T00:02:37;99011.53;;;7.91;100.00
28004;BME280;15330;51.234;6.754;2023-01-09T00:05:08;99007.41;;;7.88;100.00
28004;BME280;15330;51.234;6.754;2023-01-09T00:07:34;99009.56;;;7.78;100.00
28004;BME280;15330;51.234;6.754;2023-01-09T00:09:59;99012.94;;;7.87;100.00
28004;BME280;15330;51.234;6.754;2023-01-09T00:12:25;99021.41;;;7.76;100.00
28004;BME280;15330;51.234;6.754;2023-01-09T00:14:50;99013.66;;;7.59;100.00
28004;BME280;15330;51.234;6.754;2023-01-09T00:17:15;99015.94;;;7.62;100.00
28004;BME280;15330;51.234;6.754;2023-01-09T00:19:41;99012.91;;;7.65;100.00
28004;BME280;15330;51.234;6.754;2023-01-09T00:22:06;99014.41;;;7.53;100.00
28004;BME280;15330;51.234;6.754;2023-01-09T00:24:34;99023.47;;;7.59;100.00
28004;BME280;15330;51.234;6.754;2023-01-09T00:26:59;99015.78;;;7.49;100.00
28004;BME280;15330;51.234;6.754;2023-01-09T00:29:25;99023.41;;;7.52;100.00
28004;BME280;15330;51.234;6.754;2023-01-09T00:31:50;99013.53;;;7.46;100.00
28004;BME280;15330;51.234;6.754;2023-01-09T00:34:15;99011.88;;;7.45;100.00
28004;BME280;15330;51.234;6.754;2023-01-09T00:36:41;99028.66;;;7.46;100.00
28004;BME280;15330;51.234;6.754;2023-01-09T00:39:06;99027.72;;;7.38;100.00
28004;BME280;15330;51.234;6.754;2023-01-09T00:41:42;99030.50;;;7.45;100.00
28004;BME280;15330;51.234;6.754;2023-01-09T00:44:15;99029.84;;;7.43;100.00
28004;BME280;15330;51.234;6.754;2023-01-09T00:46:47;99032.69;;;7.42;100.00
28004;BME280;15330;51.234;6.754;2023-01-09T00:49:14;99028.94;;;7.36;100.00
28004;BME280;15330;51.234;6.754;2023-01-09T00:51:40;99046.56;;;7.37;100.00
28004;BME280;15330;51.234;6.754;2023-01-09T00:54:06;99046.34;;;7.38;100.00
28004;BME280;15330;51.234;6.754;2023-01-09T00:56:34;99049.84;;;7.39;100.00
28004;BME280;15330;51.234;6.754;2023-01-09T00:59:02;99061.31;;;7.40;100.00
28004;BME280;15330;51.234;6.754;2023-01-09T01:01:27;99058.22;;;7.36;100.00
28004;BME280;15330;51.234;6.754;2023-01-09T01:03:52;99059.56;;;7.32;100.00
28004;BME280;15330;51.234;6.754;2023-01-09T01:06:18;99052.69;;;7.37;100.00
28004;BME280;15330;51.234;6.754;2023-01-09T01:09:02;99054.09;;;7.33;100.00
28004;BME280;15330;51.234;6.754;2023-01-09T01:11:27;99055.63;;;7.43;100.00
28004;BME280;15330;51.234;6.754;2023-01-09T01:13:52;99049.75;;;7.32;100.00
28004;BME280;15330;51.234;6.754;2023-01-09T01:16:18;99060.94;;;7.43;100.00
28004;BME280;15330;51.234;6.754;2023-01-09T01:18:43;99061.69;;;7.36;100.00
28004;BME280;15330;51.234;6.754;2023-01-09T01:21:11;99070.94;;;7.41;100.00
28004;BME280;15330;51.234;6.754;2023-01-09T01:23:37;99075.31;;;7.48;100.00
28004;BME280;15330;51.234;6.754;2023-01-09T01:26:08;99076.84;;;7.36;100.00
28004;BME280;15330;51.234;6.754;2023-01-09T01:28:33;99077.72;;;7.43;100.00
28004;BME280;15330;51.234;6.754;2023-01-09T01:30:59;99076.78;;;7.51;100.00
28004;BME280;15330;51.234;6.754;2023-01-09T01:33:24;99076.72;;;7.44;100.00
28004;BME280;15330;51.234;6.754;2023-01-09T01:35:49;99077.97;;;7.48;99.99
28004;BME280;15330;51.234;6.754;2023-01-09T01:38:15;99070.81;;;7.49;99.68
28004;BME280;15330;51.234;6.754;2023-01-09T01:40:40;99073.69;;;7.47;100.00
28004;BME280;15330;51.234;6.754;2023-01-09T01:43:07;99071.66;;;7.49;99.93
28004;BME280;15330;51.234;6.754;2023-01-09T01:45:33;99074.25;;;7.43;99.73
28004;BME280;15330;51.234;6.754;2023-01-09T01:48:06;99077.09;;;7.41;100.00
28004;BME280;15330;51.234;6.754;2023-01-09T01:50:35;99077.91;;;7.42;100.00
28004;BME280;15330;51.234;6.754;2023-01-09T01:53:04;99087.44;;;7.51;99.83
28004;BME280;15330;51.234;6.754;2023-01-09T01:55:34;99082.47;;;7.62;99.70
28004;BME280;15330;51.234;6.754;2023-01-09T01:58:03;99083.22;;;7.56;99.63
28004;BME280;15330;51.234;6.754;2023-01-09T02:00:32;99079.28;;;7.52;99.40
28004;BME280;15330;51.234;6.754;2023-01-09T02:03:00;99091.03;;;7.58;99.30
28004;BME280;15330;51.234;6.754;2023-01-09T02:05:26;99091.63;;;7.60;99.02
28004;BME280;15330;51.234;6.754;2023-01-09T02:07:52;99094.97;;;7.47;99.57
28004;BME280;15330;51.234;6.754;2023-01-09T02:10:17;99102.75;;;7.63;99.50
28004;BME280;15330;51.234;6.754;2023-01-09T02:12:43;99099.25;;;7.63;98.92
28004;BME280;15330;51.234;6.754;2023-01-09T02:15:12;99115.03;;;7.64;99.26
28004;BME280;15330;51.234;6.754;2023-01-09T02:20:32;99107.41;;;7.61;99.26
28004;BME280;15330;51.234;6.754;2023-01-09T02:31:14;99094.50;;;7.44;99.74
28004;BME280;15330;51.234;6.754;2023-01-09T02:39:20;99106.91;;;7.36;99.13
28004;BME280;15330;51.234;6.754;2023-01-09T02:44:31;99109.47;;;7.30;100.00
28004;BME280;15330;51.234;6.754;2023-01-09T02:49:55;99107.34;;;7.40;99.64
28004;BME280;15330;51.234;6.754;2023-01-09T03:01:12;99110.66;;;7.42;99.47
28004;BME280;15330;51.234;6.754;2023-01-09T03:04:26;99110.41;;;7.37;98.74
28004;BME280;15330;51.234;6.754;2023-01-09T03:09:11;99109.38;;;7.23;98.36
28004;BME280;15330;51.234;6.754;2023-01-09T03:11:41;99109.47;;;7.30;98.15
28004;BME280;15330;51.234;6.754;2023-01-09T03:14:16;99127.06;;;7.31;97.95
28004;BME280;15330;51.234;6.754;2023-01-09T03:16:44;99122.31;;;7.26;98.07
28004;BME280;15330;51.234;6.754;2023-01-09T03:19:14;99134.16;;;7.24;97.26
28004;BME280;15330;51.234;6.754;2023-01-09T03:21:41;99126.25;;;7.30;97.41
28004;BME280;15330;51.234;6.754;2023-01-09T03:24:08;99129.38;;;7.19;98.08
28004;BME280;15330;51.234;6.754;2023-01-09T03:26:33;99135.06;;;7.16;97.70
28004;BME280;15330;51.234;6.754;2023-01-09T03:28:59;99137.25;;;7.13;97.41
28004;BME280;15330;51.234;6.754;2023-01-09T03:31:24;99149.72;;;7.12;97.21
28004;BME280;15330;51.234;6.754;2023-01-09T03:33:50;99146.59;;;7.09;96.27
28004;BME280;15330;51.234;6.754;2023-01-09T03:36:17;99154.31;;;7.18;96.62
28004;BME280;15330;51.234;6.754;2023-01-09T03:38:42;99157.97;;;7.17;96.96
28004;BME280;15330;51.234;6.754;2023-01-09T03:41:08;99150.25;;;7.08;97.07
28004;BME280;15330;51.234;6.754;2023-01-09T03:43:34;99160.31;;;6.97;96.84
28004;BME280;15330;51.234;6.754;2023-01-09T03:46:00;99151.00;;;7.02;96.25
28004;BME280;15330;51.234;6.754;2023-01-09T03:48:25;99157.75;;;6.89;97.01
28004;BME280;15330;51.234;6.754;2023-01-09T03:50:52;99151.34;;;6.98;96.45
28004;BME280;15330;51.234;6.754;2023-01-09T03:53:19;99153.56;;;6.95;96.75
28004;BME280;15330;51.234;6.754;2023-01-09T03:55:46;99153.59;;;6.87;96.37
28004;BME280;15330;51.234;6.754;2023-01-09T03:58:13;99148.84;;;6.82;97.15
28004;BME280;15330;51.234;6.754;2023-01-09T04:00:39;99144.53;;;6.81;96.96
28004;BME280;15330;51.234;6.754;2023-01-09T04:03:05;99149.53;;;6.76;96.14
28004;BME280;15330;51.234;6.754;2023-01-09T04:05:31;99158.47;;;6.83;96.15
28004;BME280;15330;51.234;6.754;2023-01-09T04:07:56;99150.28;;;6.70;96.41
28004;BME280;15330;51.234;6.754;2023-01-09T04:10:22;99162.56;;;6.71;96.65
28004;BME280;15330;51.234;6.754;2023-01-09T04:12:47;99151.53;;;6.59;97.41
28004;BME280;15330;51.234;6.754;2023-01-09T04:15:12;99152.53;;;6.58;97.07
28004;BME280;15330;51.234;6.754;2023-01-09T04:17:38;99164.63;;;6.61;97.07
28004;BME280;15330;51.234;6.754;2023-01-09T04:20:04;99162.81;;;6.61;97.09
28004;BME280;15330;51.234;6.754;2023-01-09T04:22:29;99162.66;;;6.55;96.97
28004;BME280;15330;51.234;6.754;2023-01-09T04:24:55;99150.94;;;6.49;97.16
28004;BME280;15330;51.234;6.754;2023-01-09T04:27:21;99171.69;;;6.54;96.79
28004;BME280;15330;51.234;6.754;2023-01-09T04:29:46;99164.56;;;6.46;96.78
28004;BME280;15330;51.234;6.754;2023-01-09T04:32:12;99175.50;;;6.51;96.37
28004;BME280;15330;51.234;6.754;2023-01-09T04:34:37;99174.09;;;6.41;96.55
28004;BME280;15330;51.234;6.754;2023-01-09T04:37:02;99176.38;;;6.44;96.59
28004;BME280;15330;51.234;6.754;2023-01-09T04:39:28;99182.22;;;6.39;96.68
28004;BME280;15330;51.234;6.754;2023-01-09T04:41:53;99185.97;;;6.45;96.00
28004;BME280;15330;51.234;6.754;2023-01-09T04:44:22;99188.47;;;6.46;96.41
28004;BME280;15330;51.234;6.754;2023-01-09T04:46:51;99197.25;;;6.47;95.51
28004;BME280;15330;51.234;6.754;2023-01-09T04:49:18;99195.50;;;6.39;95.35
28004;BME280;15330;51.234;6.754;2023-01-09T04:51:43;99193.72;;;6.32;96.45
28004;BME280;15330;51.234;6.754;2023-01-09T04:54:09;99192.72;;;6.33;95.29
28004;BME280;15330;51.234;6.754;2023-01-09T04:56:35;99194.56;;;6.32;95.55
28004;BME280;15330;51.234;6.754;2023-01-09T04:59:01;99199.97;;;6.39;95.25
28004;BME280;15330;51.234;6.754;2023-01-09T05:01:27;99203.94;;;6.43;94.70
28004;BME280;15330;51.234;6.754;2023-01-09T05:03:52;99200.59;;;6.49;94.60
28004;BME280;15330;51.234;6.754;2023-01-09T05:06:18;99206.41;;;6.44;93.83
28004;BME280;15330;51.234;6.754;2023-01-09T05:08:44;99207.66;;;6.56;93.45
28004;BME280;15330;51.234;6.754;2023-01-09T05:11:09;99213.47;;;6.60;93.17
28004;BME280;15330;51.234;6.754;2023-01-09T05:13:34;99208.97;;;6.60;93.06
28004;BME280;15330;51.234;6.754;2023-01-09T05:16:00;99201.06;;;6.52;93.46
28004;BME280;15330;51.234;6.754;2023-01-09T05:18:25;99214.13;;;6.62;92.39
28004;BME280;15330;51.234;6.754;2023-01-09T05:20:51;99222.75;;;6.64;92.83
28004;BME280;15330;51.234;6.754;2023-01-09T05:23:16;99209.56;;;6.71;92.52
28004;BME280;15330;51.234;6.754;2023-01-09T05:25:41;99235.59;;;6.75;91.59
28004;BME280;15330;51.234;6.754;2023-01-09T05:28:07;99232.13;;;6.75;92.16
28004;BME280;15330;51.234;6.754;2023-01-09T05:30:32;99217.72;;;6.69;91.88
28004;BME280;15330;51.234;6.754;2023-01-09T05:32:57;99239.38;;;6.81;91.94
28004;BME280;15330;51.234;6.754;2023-01-09T05:35:23;99226.09;;;6.81;91.59
28004;BME280;15330;51.234;6.754;2023-01-09T05:37:48;99224.53;;;6.86;91.69
28004;BME280;15330;51.234;6.754;2023-01-09T05:40:14;99221.94;;;6.78;91.58
28004;BME280;15330;51.234;6.754;2023-01-09T05:42:41;99229.50;;;6.89;91.68
28004;BME280;15330;51.234;6.754;2023-01-09T05:45:07;99219.84;;;6.74;92.23
28004;BME280;15330;51.234;6.754;2023-01-09T05:47:32;99237.41;;;6.97;92.33
28004;BME280;15330;51.234;6.754;2023-01-09T05:49:58;99239.31;;;6.89;92.32
28004;BME280;15330;51.234;6.754;2023-01-09T05:52:24;99239.31;;;6.89;92.17
28004;BME280;15330;51.234;6.754;2023-01-09T05:54:50;99236.00;;;6.87;92.62
28004;BME280;15330;51.234;6.754;2023-01-09T05:57:15;99234.13;;;6.95;92.88
28004;BME280;15330;51.234;6.754;2023-01-09T05:59:41;99232.13;;;6.75;93.88
28004;BME280;15330;51.234;6.754;2023-01-09T06:02:07;99224.97;;;6.75;94.22
28004;BME280;15330;51.234;6.754;2023-01-09T06:04:32;99234.13;;;6.95;93.36
28004;BME280;15330;51.234;6.754;2023-01-09T06:06:58;99231.09;;;6.98;93.02
28004;BME280;15330;51.234;6.754;2023-01-09T06:09:23;99227.50;;;6.91;92.28
28004;BME280;15330;51.234;6.754;2023-01-09T06:11:49;99229.59;;;7.19;90.87
28004;BME280;15330;51.234;6.754;2023-01-09T06:14:15;99230.66;;;7.10;91.34
28004;BME280;15330;51.234;6.754;2023-01-09T06:16:40;99226.25;;;7.02;90.85
28004;BME280;15330;51.234;6.754;2023-01-09T06:19:05;99228.59;;;6.97;92.13
28004;BME280;15330;51.234;6.754;2023-01-09T06:21:32;99232.50;;;7.09;91.38
28004;BME280;15330;51.234;6.754;2023-01-09T06:23:57;99221.41;;;7.06;90.83
28004;BME280;15330;51.234;6.754;2023-01-09T06:26:24;99231.03;;;7.07;91.38
28004;BME280;15330;51.234;6.754;2023-01-09T06:28:49;99240.78;;;7.14;91.22
28004;BME280;15330;51.234;6.754;2023-01-09T06:31:14;99222.16;;;7.14;91.11
28004;BME280;15330;51.234;6.754;2023-01-09T06:33:40;99225.53;;;7.08;90.89
28004;BME280;15330;51.234;6.754;2023-01-09T06:36:06;99233.06;;;7.19;91.18
28004;BME280;15330;51.234;6.754;2023-01-09T06:38:31;99224.38;;;7.25;91.38
28004;BME280;15330;51.234;6.754;2023-01-09T06:40:57;99229.72;;;7.25;90.73
28004;BME280;15330;51.234;6.754;2023-01-09T06:43:23;99236.38;;;7.21;91.00
28004;BME280;15330;51.234;6.754;2023-01-09T06:45:49;99238.13;;;7.29;91.21
28004;BME280;15330;51.234;6.754;2023-01-09T06:48:14;99234.56;;;7.22;90.23
28004;BME280;15330;51.234;6.754;2023-01-09T06:50:39;99234.94;;;7.33;91.00
28004;BME280;15330;51.234;6.754;2023-01-09T06:53:05;99242.94;;;7.33;90.70
28004;BME280;15330;51.234;6.754;2023-01-09T06:55:31;99243.56;;;7.35;90.64
28004;BME280;15330;51.234;6.754;2023-01-09T06:57:56;99230.28;;;7.35;90.82
28004;BME280;15330;51.234;6.754;2023-01-09T07:00:21;99233.19;;;7.26;91.05
28004;BME280;15330;51.234;6.754;2023-01-09T07:02:47;99229.91;;;7.38;90.55
28004;BME280;15330;51.234;6.754;2023-01-09T07:05:13;99236.03;;;7.24;91.31
28004;BME280;15330;51.234;6.754;2023-01-09T07:07:38;99231.06;;;7.21;91.52
28004;BME280;15330;51.234;6.754;2023-01-09T07:10:04;99228.94;;;7.17;90.78
28004;BME280;15330;51.234;6.754;2023-01-09T07:12:30;99229.13;;;7.15;90.86
28004;BME280;15330;51.234;6.754;2023-01-09T07:14:55;99232.31;;;7.11;91.17
28004;BME280;15330;51.234;6.754;2023-01-09T07:17:20;99231.97;;;7.14;91.28
28004;BME280;15330;51.234;6.754;2023-01-09T07:19:46;99230.66;;;7.10;91.13
28004;BME280;15330;51.234;6.754;2023-01-09T07:22:11;99232.41;;;7.17;90.64
28004;BME280;15330;51.234;6.754;2023-01-09T07:24:36;99231.59;;;7.17;90.54
28004;BME280;15330;51.234;6.754;2023-01-09T07:27:02;99219.56;;;7.06;91.17
28004;BME280;15330;51.234;6.754;2023-01-09T07:29:28;99230.31;;;7.13;91.10
28004;BME280;15330;51.234;6.754;2023-01-09T07:31:53;99239.66;;;7.09;91.29
28004;BME280;15330;51.234;6.754;2023-01-09T07:34:19;99239.88;;;7.22;90.96
28004;BME280;15330;51.234;6.754;2023-01-09T07:36:44;99236.69;;;7.26;90.42
28004;BME280;15330;51.234;6.754;2023-01-09T07:39:11;99245.72;;;7.17;91.20
28004;BME280;15330;51.234;6.754;2023-01-09T07:41:38;99238.50;;;7.26;91.50
28004;BME280;15330;51.234;6.754;2023-01-09T07:44:03;99252.25;;;7.29;90.89
28004;BME280;15330;51.234;6.754;2023-01-09T07:46:28;99246.50;;;7.26;91.98
28004;BME280;15330;51.234;6.754;2023-01-09T07:48:54;99244.00;;;7.24;91.00
28004;BME280;15330;51.234;6.754;2023-01-09T07:51:19;99244.88;;;7.17;91.54
28004;BME280;15330;51.234;6.754;2023-01-09T07:53:44;99255.53;;;7.17;92.03
28004;BME280;15330;51.234;6.754;2023-01-09T07:56:10;99256.94;;;7.27;91.36
28004;BME280;15330;51.234;6.754;2023-01-09T07:58:36;99268.03;;;7.31;91.60
28004;BME280;15330;51.234;6.754;2023-01-09T08:01:02;99261.41;;;7.27;91.89
28004;BME280;15330;51.234;6.754;2023-01-09T08:03:27;99260.41;;;7.28;91.95
28004;BME280;15330;51.234;6.754;2023-01-09T08:05:53;99274.53;;;7.28;91.88
28004;BME280;15330;51.234;6.754;2023-01-09T08:08:18;99263.50;;;7.17;91.95
28004;BME280;15330;51.234;6.754;2023-01-09T08:10:44;99263.56;;;7.31;92.06
28004;BME280;15330;51.234;6.754;2023-01-09T08:13:09;99263.63;;;7.23;91.85
28004;BME280;15330;51.234;6.754;2023-01-09T08:15:34;99262.63;;;7.39;90.94
28004;BME280;15330;51.234;6.754;2023-01-09T08:18:00;99255.13;;;7.43;90.50
28004;BME280;15330;51.234;6.754;2023-01-09T08:20:25;99263.38;;;7.48;90.24
28004;BME280;15330;51.234;6.754;2023-01-09T08:22:51;99280.38;;;7.61;89.56
28004;BME280;15330;51.234;6.754;2023-01-09T08:25:18;99272.22;;;7.63;88.91
28004;BME280;15330;51.234;6.754;2023-01-09T08:27:44;99276.63;;;7.70;88.15
28004;BME280;15330;51.234;6.754;2023-01-09T08:30:10;99273.78;;;7.72;87.46
28004;BME280;15330;51.234;6.754;2023-01-09T08:32:35;99275.94;;;7.77;87.06
28004;BME280;15330;51.234;6.754;2023-01-09T08:35:02;99277.19;;;7.81;87.42
28004;BME280;15330;51.234;6.754;2023-01-09T08:37:27;99274.72;;;7.79;87.35
28004;BME280;15330;51.234;6.754;2023-01-09T08:39:53;99280.50;;;7.83;87.20
28004;BME280;15330;51.234;6.754;2023-01-09T08:42:18;99284.28;;;7.88;86.52
28004;BME280;15330;51.234;6.754;2023-01-09T08:45:03;99289.97;;;7.85;87.33
28004;BME280;15330;51.234;6.754;2023-01-09T08:47:47;99293.91;;;7.89;86.59
28004;BME280;15330;51.234;6.754;2023-01-09T08:50:13;99298.59;;;7.87;86.26
28004;BME280;15330;51.234;6.754;2023-01-09T08:52:38;99300.53;;;7.93;86.44
28004;BME280;15330;51.234;6.754;2023-01-09T08:55:04;99306.19;;;7.90;86.48
28004;BME280;15330;51.234;6.754;2023-01-09T08:57:29;99303.53;;;7.90;86.69
28004;BME280;15330;51.234;6.754;2023-01-09T08:59:55;99306.84;;;7.92;86.29
28004;BME280;15330;51.234;6.754;2023-01-09T09:02:20;99320.16;;;7.92;86.38
28004;BME280;15330;51.234;6.754;2023-01-09T09:04:45;99326.31;;;7.93;86.50
28004;BME280;15330;51.234;6.754;2023-01-09T09:07:12;99315.31;;;7.96;85.83
28004;BME280;15330;51.234;6.754;2023-01-09T09:09:37;99320.16;;;7.92;86.16
28004;BME280;15330;51.234;6.754;2023-01-09T09:12:03;99319.63;;;7.97;86.24
28004;BME280;15330;51.234;6.754;2023-01-09T09:14:28;99320.91;;;8.01;86.45
28004;BME280;15330;51.234;6.754;2023-01-09T09:17:12;99317.78;;;7.97;86.18
28004;BME280;15330;51.234;6.754;2023-01-09T09:19:37;99321.66;;;7.95;86.29
28004;BME280;15330;51.234;6.754;2023-01-09T09:22:03;99331.84;;;8.06;86.57
28004;BME280;15330;51.234;6.754;2023-01-09T09:24:29;99323.75;;;7.99;86.48
28004;BME280;15330;51.234;6.754;2023-01-09T09:26:54;99333.03;;;8.03;86.38
28004;BME280;15330;51.234;6.754;2023-01-09T09:29:20;99337.34;;;8.04;86.73
28004;BME280;15330;51.234;6.754;2023-01-09T09:31:45;99340.91;;;8.11;87.15
28004;BME280;15330;51.234;6.754;2023-01-09T09:34:10;99340.91;;;8.11;86.92
28004;BME280;15330;51.234;6.754;2023-01-09T09:36:37;99343.69;;;8.18;86.96
28004;BME280;15330;51.234;6.754;2023-01-09T09:39:02;99352.69;;;8.17;86.92
28004;BME280;15330;51.234;6.754;2023-01-09T09:41:39;99365.38;;;8.30;86.43
28004;BME280;15330;51.234;6.754;2023-01-09T09:47:40;99365.66;;;8.35;85.99
28004;BME280;15330;51.234;6.754;2023-01-09T09:53:20;99377.72;;;8.45;85.54
28004;BME280;15330;51.234;6.754;2023-01-09T09:55:49;99380.19;;;8.47;86.16
28004;BME280;15330;51.234;6.754;2023-01-09T09:58:53;99394.44;;;8.39;85.85
28004;BME280;15330;51.234;6.754;2023-01-09T10:01:29;99392.41;;;8.41;86.45
28004;BME280;15330;51.234;6.754;2023-01-09T10:03:59;99393.97;;;8.36;86.67
28004;BME280;15330;51.234;6.754;2023-01-09T10:06:30;99403.28;;;8.40;86.93
28004;BME280;15330;51.234;6.754;2023-01-09T10:08:59;99403.34;;;8.32;87.14
28004;BME280;15330;51.234;6.754;2023-01-09T10:11:36;99404.69;;;8.28;86.63
28004;BME280;15330;51.234;6.754;2023-01-09T10:14:03;99404.88;;;8.26;86.40
28004;BME280;15330;51.234;6.754;2023-01-09T10:19:26;99418.00;;;8.28;86.54
28004;BME280;15330;51.234;6.754;2023-01-09T10:22:09;99406.34;;;8.29;85.97
28004;BME280;15330;51.234;6.754;2023-01-09T10:28:01;99416.13;;;8.36;86.21
28004;BME280;15330;51.234;6.754;2023-01-09T10:38:42;99412.97;;;8.18;87.11
28004;BME280;15330;51.234;6.754;2023-01-09T10:41:32;99412.22;;;8.24;86.85
28004;BME280;15330;51.234;6.754;2023-01-09T10:44:14;99411.56;;;8.22;87.16
28004;BME280;15330;51.234;6.754;2023-01-09T10:46:52;99415.16;;;8.15;87.79
28004;BME280;15330;51.234;6.754;2023-01-09T10:49:19;99419.56;;;8.22;87.50
28004;BME280;15330;51.234;6.754;2023-01-09T10:54:21;99420.56;;;8.21;87.14
28004;BME280;15330;51.234;6.754;2023-01-09T10:57:01;99417.72;;;8.23;87.13
28004;BME280;15330;51.234;6.754;2023-01-09T10:59:29;99423.13;;;8.15;88.27
28004;BME280;15330;51.234;6.754;2023-01-09T11:01:55;99424.44;;;8.19;87.78
28004;BME280;15330;51.234;6.754;2023-01-09T11:04:26;99433.78;;;8.15;87.76
28004;BME280;15330;51.234;6.754;2023-01-09T11:07:13;99436.38;;;8.23;87.52
28004;BME280;15330;51.234;6.754;2023-01-09T11:09:57;99430.91;;;8.39;87.67
28004;BME280;15330;51.234;6.754;2023-01-09T11:12:26;99428.97;;;8.33;87.00
28004;BME280;15330;51.234;6.754;2023-01-09T11:14:52;99431.94;;;8.38;86.51
28004;BME280;15330;51.234;6.754;2023-01-09T11:17:20;99428.69;;;8.42;85.98
28004;BME280;15330;51.234;6.754;2023-01-09T11:20:09;99427.03;;;8.41;85.60
28004;BME280;15330;51.234;6.754;2023-01-09T11:22:44;99428.63;;;8.51;84.63
28004;BME280;15330;51.234;6.754;2023-01-09T11:25:14;99420.34;;;8.60;84.66
28004;BME280;15330;51.234;6.754;2023-01-09T11:27:39;99420.06;;;8.55;84.17
28004;BME280;15330;51.234;6.754;2023-01-09T11:32:34;99427.41;;;8.68;83.96
28004;BME280;15330;51.234;6.754;2023-01-09T11:34:59;99422.16;;;8.74;84.03
28004;BME280;15330;51.234;6.754;2023-01-09T11:37:27;99436.91;;;8.70;83.85
28004;BME280;15330;51.234;6.754;2023-01-09T11:39:54;99431.09;;;8.67;84.18
28004;BME280;15330;51.234;6.754;2023-01-09T11:42:25;99437.06;;;8.54;84.34
28004;BME280;15330;51.234;6.754;2023-01-09T11:47:39;99447.66;;;8.48;84.37
28004;BME280;15330;51.234;6.754;2023-01-09T11:50:21;99447.66;;;8.48;84.42
28004;BME280;15330;51.234;6.754;2023-01-09T11:53:17;99456.00;;;8.44;84.24
28004;BME280;15330;51.234;6.754;2023-01-09T11:55:45;99466.66;;;8.44;85.11
28004;BME280;15330;51.234;6.754;2023-01-09T11:58:32;99462.63;;;8.49;84.44
28004;BME280;15330;51.234;6.754;2023-01-09T12:01:09;99466.56;;;8.38;84.99
28004;BME280;15330;51.234;6.754;2023-01-09T12:09:42;99489.94;;;8.28;84.37
28004;BME280;15330;51.234;6.754;2023-01-09T12:15:22;99481.72;;;8.15;84.61
28004;BME280;15330;51.234;6.754;2023-01-09T12:18:07;99488.88;;;8.14;84.74
28004;BME280;15330;51.234;6.754;2023-01-09T12:26:12;99491.72;;;8.13;84.79
28004;BME280;15330;51.234;6.754;2023-01-09T12:36:52;99488.91;;;7.91;85.68
28004;BME280;15330;51.234;6.754;2023-01-09T12:42:08;99501.22;;;7.92;85.33
28004;BME280;15330;51.234;6.754;2023-01-09T12:44:47;99491.22;;;7.94;84.78
28004;BME280;15330;51.234;6.754;2023-01-09T12:53:18;99505.03;;;8.13;85.54
28004;BME280;15330;51.234;6.754;2023-01-09T12:55:50;99513.22;;;8.11;85.43
28004;BME280;15330;51.234;6.754;2023-01-09T12:58:35;99509.88;;;7.94;86.22
28004;BME280;15330;51.234;6.754;2023-01-09T13:01:04;99515.69;;;8.13;86.62
28004;BME280;15330;51.234;6.754;2023-01-09T13:03:39;99506.72;;;8.14;86.98
28004;BME280;15330;51.234;6.754;2023-01-09T13:06:07;99516.34;;;8.15;86.84
28004;BME280;15330;51.234;6.754;2023-01-09T13:08:56;99520.56;;;8.09;86.67
28004;BME280;15330;51.234;6.754;2023-01-09T13:11:40;99517.53;;;8.12;86.58
28004;BME280;15330;51.234;6.754;2023-01-09T13:14:37;99521.03;;;8.35;85.75
28004;BME280;15330;51.234;6.754;2023-01-09T13:17:04;99534.75;;;8.47;84.63
28004;BME280;15330;51.234;6.754;2023-01-09T13:19:42;99539.53;;;8.52;84.87
28004;BME280;15330;51.234;6.754;2023-01-09T13:22:09;99539.44;;;8.45;85.11
28004;BME280;15330;51.234;6.754;2023-01-09T13:27:10;99557.97;;;8.16;86.78
28004;BME280;15330;51.234;6.754;2023-01-09T13:29:43;99549.72;;;8.25;86.99
28004;BME280;15330;51.234;6.754;2023-01-09T13:32:40;99556.78;;;7.95;87.43
28004;BME280;15330;51.234;6.754;2023-01-09T13:35:14;99562.78;;;7.97;87.95
28004;BME280;15330;51.234;6.754;2023-01-09T13:37:41;99565.25;;;7.99;88.41
28004;BME280;15330;51.234;6.754;2023-01-09T13:40:27;99559.88;;;8.07;88.42
28004;BME280;15330;51.234;6.754;2023-01-09T13:42:59;99568.28;;;8.19;87.83
28004;BME280;15330;51.234;6.754;2023-01-09T13:45:28;99565.72;;;8.02;88.26
28004;BME280;15330;51.234;6.754;2023-01-09T13:56:07;99577.13;;;8.11;86.66
28004;BME280;15330;51.234;6.754;2023-01-09T14:01:03;99581.28;;;8.14;85.55
28004;BME280;15330;51.234;6.754;2023-01-09T14:03:31;99589.94;;;8.16;86.10
28004;BME280;15330;51.234;6.754;2023-01-09T14:08:26;99601.31;;;8.09;89.23
28004;BME280;15330;51.234;6.754;2023-01-09T14:10:54;99617.13;;;8.03;88.34
28004;BME280;15330;51.234;6.754;2023-01-09T14:13:42;99611.53;;;7.98;87.86
28004;BME280;15330;51.234;6.754;2023-01-09T14:16:17;99622.47;;;8.03;87.60
28004;BME280;15330;51.234;6.754;2023-01-09T14:18:52;99633.13;;;8.03;87.48
28004;BME280;15330;51.234;6.754;2023-01-09T14:21:21;99636.13;;;8.00;87.09
28004;BME280;15330;51.234;6.754;2023-01-09T14:26:22;99650.09;;;8.02;86.16
28004;BME280;15330;51.234;6.754;2023-01-09T14:28:48;99654.59;;;8.01;86.47
28004;BME280;15330;51.234;6.754;2023-01-09T14:31:30;99668.28;;;7.98;85.91
28004;BME280;15330;51.234;6.754;2023-01-09T14:34:28;99663.06;;;8.05;85.74
28004;BME280;15330;51.234;6.754;2023-01-09T14:37:00;99673.41;;;8.00;86.02
28004;BME280;15330;51.234;6.754;2023-01-09T14:39:28;99690.22;;;8.00;86.53
28004;BME280;15330;51.234;6.754;2023-01-09T14:41:57;99691.22;;;7.99;87.01
28004;BME280;15330;51.234;6.754;2023-01-09T14:52:34;99727.03;;;7.97;86.93
28004;BME280;15330;51.234;6.754;2023-01-09T14:55:05;99726.38;;;7.95;87.07
28004;BME280;15330;51.234;6.754;2023-01-09T14:57:37;99730.38;;;7.99;86.83
28004;BME280;15330;51.234;6.754;2023-01-09T15:00:04;99733.03;;;7.99;86.73
28004;BME280;15330;51.234;6.754;2023-01-09T15:02:33;99735.38;;;7.94;86.53
28004;BME280;15330;51.234;6.754;2023-01-09T15:05:02;99741.84;;;7.91;86.94
28004;BME280;15330;51.234;6.754;2023-01-09T15:07:32;99737.06;;;7.87;87.14
28004;BME280;15330;51.234;6.754;2023-01-09T15:10:05;99747.19;;;7.91;86.97
28004;BME280;15330;51.234;6.754;2023-01-09T15:12:32;99754.50;;;7.89;87.31
28004;BME280;15330;51.234;6.754;2023-01-09T15:15:00;99751.03;;;7.81;87.61
28004;BME280;15330;51.234;6.754;2023-01-09T15:17:33;99757.03;;;7.83;87.40